Melbourne, KY

9:59 PM EST on November 20, 2014 (GMT -0500)
APRSWXNET Withamsville OH US | Change Station
CLOSE
Current Station
Personal Weather Station
Location: Campsprings, KY
Elevation: 935 ft
Nearby Weather Stations

Elev 935 ft 39.00 °N, 84.30 °W | Updated 44 minutes ago

Clear
Clear
26.0 °F
Feels Like 26.0 °F
N
0.0
Wind Variable Wind from West
Gusts 3.0 mph

Today
High -- | Low -- °F
--% Chance of Precip.
Yesterday
High -- | Low -- °F
Precip. -- in
7:25 AM 5:19 PM
Waning Crescent, 2% visible
Pressure 30.27 in
Visibility 10.0 miles
Clouds Clear
Dew Point 19.0 °F
Humidity 73%
Rainfall 0.09 in
Snow Depth Not available.
UV 0 out of 12
Pollen .10 out of 12
Air Quality Not available.
Flu Activity Not available.
METAR KLUK 210153Z 23005KT 10SM CLR M04/M09 A3025 RMK AO2 SLP249 T10391094

More Conditions Fewer Conditions

Pressure 30.27 in
Visibility 10.0 miles
Clouds Clear
Dew Point 19.0 °F
Humidity 73%
Rainfall 0.09 in
Snow Depth Not available.
UV 0 out of 12
Pollen .10 out of 12
Air Quality Not available.
Flu Activity Not available.
METAR KLUK 210153Z 23005KT 10SM CLR M04/M09 A3025 RMK AO2 SLP249 T10391094

More Conditions Fewer Conditions

10-Day Weather Forecast

Almanac

Astronomy

Nov. 20, 2014 Rise Set
Actual Time
Civil Twilight
Nautical Twilight
Astronomical Twilight
Moon
Length of Visible Light
Length of Day
Tomorrow will be .
, % of the Moon is Illuminated

Today's Extremes

State Highs State Lows

Community

WunderPhotos

Upload Photos

1,772,593 photos uploaded!

WunderBlogs® & News

Nearby

Air Quality

  Air Quality AQ Index Pollutant
Not available.

Snow Depth

Station Depth Elevation

Earthquake Activity

City Distance Mag. Time & Date
Minimum magnitude displayed is 2.5.

Coastal Water Temperatures

Place Temperature

Nearby Weather Stations